Relevés horaires Eggishorn (Suisse)


Relevés horaires à Eggishorn - Lundi 31 Août 2026
Heure UTC1 Température [°C] Vent [km/h] Hum. [%] Pres.4 [hPa] Visi. [Km] Nébu. [octa] Préc.5 [mm] Cond.
2m. Res. Ros. Dir.2 Vit. Moy. Raf.3
23:00 2.0 0.4 1.8 ESE 5.6 -- 11.1 99 700(-0.1/3h) -- -- -- --
22:00 3.0 1.6 2.3 SSE 5.6 -- 14.8 95 700(0.3/3h) -- -- -- --
21:00 4.8 3.6 -0.1 O 5.6 -- 42.6 70 700(0.7/3h) -- -- -- --
20:00 5.2 3.5 -1.5 O 7.4 -- 22.2 62 700(0.6/3h) -- -- -- --
19:00 6.9 4.4 -3.7 NNO 13.0 -- 42.6 47 700(0.4/3h) -- -- -- --
18:00 6.9 3.6 -3.7 NO 18.5 -- 66.7 47 700(-0.1/3h) -- -- -- --
17:00 9.1 6.4 -3.8 O 18.5 -- 66.7 40 700(0.0/3h) -- -- -- --
16:00 9.6 5.7 -5.9 O 35.2 -- 66.7 33 700(-0.2/3h) -- -- -- --
15:00 9.8 7.1 -2.5 ONO 20.4 -- 51.9 42 700(0.1/3h) -- -- -- --
14:00 9.9 8.1 2.3 ONO 13.0 -- 27.8 59 700(0.1/3h) -- -- -- --
13:00 8.9 8.3 4.5 O 5.6 -- 25.9 74 700(0.4/3h) -- -- -- --
12:00 8.7 6.6 3.7 O 13.0 -- 53.7 71 700(0.3/3h) -- -- -- --
11:00 7.2 4.5 1.7 O 14.8 -- 37.0 68 700(0.5/3h) -- -- -- --
10:00 7.2 3.4 3.4 O 24.1 -- 42.6 77 700(0.5/3h) -- -- -- --
09:00 7.0 4.5 3.5 O 13.0 -- 53.7 78 700(0.7/3h) -- -- -- --
08:00 5.8 3.1 3.6 O 13.0 -- 31.5 86 700(0.3/3h) -- -- -- --
07:00 5.9 1.8 1.4 O 24.1 -- 53.7 73 700(-0.1/3h) -- -- -- --
06:00 5.6 0.9 1.5 O 29.6 -- 53.7 75 700(-0.5/3h) -- -- -- --
05:00 4.7 2.1 2.4 NO 11.1 -- 38.9 85 700(-0.2/3h) -- -- -- --
04:00 4.6 3.4 3.3 ONO 5.6 -- 22.2 91 700(-0.3/3h) -- -- -- --
03:00 4.6 2.8 3.0 ONO 7.4 -- 53.7 89 700(0.0/3h) -- -- -- --
02:00 5.7 3.3 1.4 O 11.1 -- 40.7 74 700(-0.5/3h) -- -- -- --
01:00 5.9 2.4 3.0 O 18.5 -- 53.7 82 700(-0.2/3h) -- -- -- --
00:00 6.7 4.5 3.4 O 11.1 -- 31.5 79 700(-0.4/3h) -- -- -- --

1 Coordinated Universal Time. Actuellement il est 02:00 locale et 00:00 UTC.

2 Le vent souffle depuis la direction indiquée vers la direction oposée.

3 Les rafales max. sont disponible 40 min après l'heure du relevé.

4 Pour les stations d'altitude (plus de 600m) le géopotentiel du niveau le plus proche de la pression obligatoire est indiqué.

5 Les stations disposant d'un diffuseur peuvent indiquer "trace". Cela signifie que des précipitations ont touchés le sol mais que la quantité est inférieure à 0.1 mm.

Copyright

Les données affichées sur cette page sont la propriété exclusive de Météo Suisse.

Récapitulatif de la journée
Température [°C] Vent [km/h] Ensoleillement4 [h] Precipitations totale5 [mm] Pression [Hpa]
Min1 Max.2 Moy.3 Max. Min Max.
4.0 10.4 0 66.7 7 h 48 min 0 700.0 700.0

1 Température minimale relevée entre 18:00 UTC la veille et 18:00 UTC le jour donné.

2 Température maximale relevée entre 06:00 UTC le jour donné et 06:00 UTC le lendemain.

3 Vent moyen de la journée basé sur les relevés horaires.

4 Ensoleillement en heures relevé entre 06:00 UTC la veille et 06:00 UTC le jour donné.

5 Précipitations totales tombées entre 06:00 UTC la jour donné et 06:00 UTC le lendemain.

Graphiques horaires